createdAt,value
2018-02-04T00:00:06.853Z,1006.89
2018-02-04T00:01:06.843Z,1006.89
2018-02-04T00:02:06.817Z,1006.91
2018-02-04T00:03:06.810Z,1006.96
2018-02-04T00:04:06.775Z,1006.93
2018-02-04T00:05:06.759Z,1006.95
2018-02-04T00:06:06.752Z,1007.01
2018-02-04T00:07:06.717Z,1006.98
2018-02-04T00:08:06.699Z,1007.01
2018-02-04T00:09:06.679Z,1007.04
2018-02-04T00:10:06.664Z,1007.10
2018-02-04T00:11:06.656Z,1007.07
2018-02-04T00:12:06.619Z,1007.10
2018-02-04T00:13:06.596Z,1007.07
2018-02-04T00:14:06.580Z,1007.12
2018-02-04T00:15:06.561Z,1007.06
2018-02-04T00:16:06.560Z,1007.11
2018-02-04T00:17:06.524Z,1007.15
2018-02-04T00:18:06.506Z,1007.19
2018-02-04T00:19:06.483Z,1007.18
2018-02-04T00:20:06.464Z,1007.26
2018-02-04T00:21:06.445Z,1007.20
2018-02-04T00:22:06.439Z,1007.23
2018-02-04T00:23:06.450Z,1007.23
2018-02-04T00:24:06.385Z,1007.29
2018-02-04T00:25:06.371Z,1007.30
2018-02-04T00:26:06.349Z,1007.29
2018-02-04T00:27:06.331Z,1007.28
2018-02-04T00:28:06.306Z,1007.35
2018-02-04T00:29:06.297Z,1007.37
2018-02-04T00:30:06.266Z,1007.38
2018-02-04T00:31:06.249Z,1007.41
2018-02-04T00:32:06.228Z,1007.43
2018-02-04T00:33:06.209Z,1007.44
2018-02-04T00:34:06.207Z,1007.46
2018-02-04T00:35:06.171Z,1007.52
2018-02-04T00:36:06.153Z,1007.54
2018-02-04T00:37:06.135Z,1007.51
2018-02-04T00:38:06.113Z,1007.50
2018-02-04T00:39:06.095Z,1007.48
2018-02-04T00:40:06.084Z,1007.52
2018-02-04T00:41:06.067Z,1007.55
2018-02-04T00:42:06.030Z,1007.55
2018-02-04T00:43:06.014Z,1007.56
2018-02-04T00:44:06.009Z,1007.62
2018-02-04T00:45:05.993Z,1007.63
2018-02-04T00:46:05.957Z,1007.67
2018-02-04T00:47:05.930Z,1007.71
2018-02-04T00:48:05.913Z,1007.75
2018-02-04T00:49:05.933Z,1007.73
2018-02-04T00:50:05.876Z,1007.77
2018-02-04T00:51:05.855Z,1007.74
2018-02-04T00:52:05.835Z,1007.78
2018-02-04T00:53:05.821Z,1007.77
2018-02-04T00:54:05.795Z,1007.85
2018-02-04T00:55:05.790Z,1007.79
2018-02-04T00:56:05.754Z,1007.83
2018-02-04T00:57:05.734Z,1007.86
2018-02-04T00:58:05.715Z,1007.86
2018-02-04T00:59:05.697Z,1007.91
2018-02-04T01:00:05.689Z,1007.87
2018-02-04T01:01:05.657Z,1007.94
2018-02-04T01:02:05.635Z,1007.91
2018-02-04T01:03:05.616Z,1007.93
2018-02-04T01:04:05.595Z,1007.91
2018-02-04T01:05:05.590Z,1007.96
2018-02-04T01:06:05.552Z,1007.97
2018-02-04T01:07:05.536Z,1007.97
2018-02-04T01:08:05.528Z,1008.00
2018-02-04T01:09:05.494Z,1008.04
2018-02-04T01:10:05.492Z,1008.04
2018-02-04T01:11:05.456Z,1008.09
2018-02-04T01:12:05.432Z,1008.14
2018-02-04T01:13:05.418Z,1008.16
2018-02-04T01:14:05.395Z,1008.15
2018-02-04T01:15:05.374Z,1008.19
2018-02-04T01:16:05.370Z,1008.20
2018-02-04T01:17:05.336Z,1008.21
2018-02-04T01:18:05.319Z,1008.20
2018-02-04T01:19:05.337Z,1008.22
2018-02-04T01:20:05.275Z,1008.27
2018-02-04T01:21:05.269Z,1008.27
2018-02-04T01:22:05.237Z,1008.30
2018-02-04T01:23:05.217Z,1008.30
2018-02-04T01:24:05.195Z,1008.32
2018-02-04T01:25:05.181Z,1008.32
2018-02-04T01:26:05.174Z,1008.33
2018-02-04T01:27:05.137Z,1008.37
2018-02-04T01:28:05.116Z,1008.38
2018-02-04T01:29:05.099Z,1008.37
2018-02-04T01:30:05.101Z,1008.39
2018-02-04T01:31:05.073Z,1008.44
2018-02-04T01:32:05.037Z,1008.43
2018-02-04T01:33:05.016Z,1008.46
2018-02-04T01:34:05.671Z,1008.44
2018-02-04T01:35:04.978Z,1008.46
2018-02-04T01:36:04.957Z,1008.46
2018-02-04T01:37:04.953Z,1008.49
2018-02-04T01:38:04.918Z,1008.49
2018-02-04T01:39:04.911Z,1008.49
2018-02-04T01:40:04.873Z,1008.49
2018-02-04T01:41:04.899Z,1008.54
2018-02-04T01:42:04.836Z,1008.57
2018-02-04T01:43:04.817Z,1008.60
2018-02-04T01:44:04.796Z,1008.58
2018-02-04T01:45:04.796Z,1008.61
2018-02-04T01:46:04.758Z,1008.57
2018-02-04T01:47:04.738Z,1008.64
2018-02-04T01:48:04.716Z,1008.64
2018-02-04T01:49:04.698Z,1008.67
2018-02-04T01:50:04.676Z,1008.66
2018-02-04T01:51:04.672Z,1008.63
2018-02-04T01:52:04.636Z,1008.66
2018-02-04T01:53:04.619Z,1008.70
2018-02-04T01:54:04.614Z,1008.68
2018-02-04T01:55:04.576Z,1008.70
2018-02-04T01:56:04.561Z,1008.69
2018-02-04T01:57:04.537Z,1008.67
2018-02-04T01:58:04.529Z,1008.73
2018-02-04T01:59:04.522Z,1008.74
2018-02-04T02:00:04.477Z,1008.74
2018-02-04T02:01:04.473Z,1008.77
2018-02-04T02:02:04.438Z,1008.80
2018-02-04T02:03:04.416Z,1008.82
2018-02-04T02:04:04.412Z,1008.78
2018-02-04T02:05:04.391Z,1008.77
2018-02-04T02:06:04.357Z,1008.77
2018-02-04T02:07:04.352Z,1008.79
2018-02-04T02:08:05.173Z,1008.84
2018-02-04T02:09:04.307Z,1008.81
2018-02-04T02:10:04.275Z,1008.79
2018-02-04T02:11:04.256Z,1008.82
2018-02-04T02:12:04.256Z,1008.82
2018-02-04T02:13:04.220Z,1008.84
2018-02-04T02:14:04.202Z,1008.85
2018-02-04T02:15:04.173Z,1008.85
2018-02-04T02:16:04.157Z,1008.86
2018-02-04T02:17:04.200Z,1008.90
2018-02-04T02:18:04.116Z,1008.83
2018-02-04T02:19:04.097Z,1008.87
2018-02-04T02:20:04.074Z,1008.86
2018-02-04T02:21:04.053Z,1008.85
2018-02-04T02:22:04.101Z,1008.89
2018-02-04T02:23:04.028Z,1008.93
2018-02-04T02:24:04.001Z,1008.92
2018-02-04T02:25:03.973Z,1008.96
2018-02-04T02:26:03.959Z,1008.99
2018-02-04T02:27:03.937Z,1008.99
2018-02-04T02:28:03.932Z,1009.01
2018-02-04T02:29:03.896Z,1009.01
2018-02-04T02:30:03.877Z,1009.04
2018-02-04T02:31:03.858Z,1009.02
2018-02-04T02:32:03.837Z,1009.05
2018-02-04T02:33:03.817Z,1009.07
2018-02-04T02:34:03.814Z,1009.04
2018-02-04T02:35:03.782Z,1009.07
2018-02-04T02:36:03.756Z,1009.08
2018-02-04T02:37:03.742Z,1009.10
2018-02-04T02:38:03.740Z,1009.12
2018-02-04T02:39:03.713Z,1009.12
2018-02-04T02:40:03.675Z,1009.14
2018-02-04T02:41:03.657Z,1009.14
2018-02-04T02:42:03.642Z,1009.20
2018-02-04T02:43:03.614Z,1009.18
2018-02-04T02:44:03.613Z,1009.20
2018-02-04T02:45:03.597Z,1009.16
2018-02-04T02:46:03.559Z,1009.19
2018-02-04T02:47:03.544Z,1009.22
2018-02-04T02:48:03.575Z,1009.21
2018-02-04T02:49:03.515Z,1009.20
2018-02-04T02:50:03.477Z,1009.25
2018-02-04T02:51:03.476Z,1009.29
2018-02-04T02:52:03.442Z,1009.35
2018-02-04T02:53:03.416Z,1009.32
2018-02-04T02:54:03.399Z,1009.40
2018-02-04T02:55:03.375Z,1009.36
2018-02-04T02:56:03.373Z,1009.45
2018-02-04T02:57:03.336Z,1009.43
2018-02-04T02:58:03.310Z,1009.43
2018-02-04T02:59:03.302Z,1009.46
2018-02-04T03:00:03.272Z,1009.48
2018-02-04T03:01:03.254Z,1009.50
2018-02-04T03:02:03.251Z,1009.50
2018-02-04T03:03:03.215Z,1009.53
2018-02-04T03:04:03.306Z,1009.58
2018-02-04T03:05:03.175Z,1009.57
2018-02-04T03:06:03.176Z,1009.57
2018-02-04T03:07:03.135Z,1009.61
2018-02-04T03:08:03.155Z,1009.61
2018-02-04T03:09:03.098Z,1009.64
2018-02-04T03:10:03.081Z,1009.63
2018-02-04T03:11:03.053Z,1009.64
2018-02-04T03:12:03.033Z,1009.68
2018-02-04T03:13:03.036Z,1009.66
2018-02-04T03:14:02.994Z,1009.72
2018-02-04T03:15:02.969Z,1009.75
2018-02-04T03:16:02.951Z,1009.76
2018-02-04T03:17:02.942Z,1009.81
2018-02-04T03:18:02.926Z,1009.75
2018-02-04T03:19:02.915Z,1009.81
2018-02-04T03:20:02.873Z,1009.80
2018-02-04T03:21:02.849Z,1009.82
2018-02-04T03:22:02.833Z,1009.85
2018-02-04T03:23:02.837Z,1009.84
2018-02-04T03:24:02.790Z,1009.85
2018-02-04T03:25:03.201Z,1009.84
2018-02-04T03:26:02.746Z,1009.87
2018-02-04T03:27:02.790Z,1009.89
2018-02-04T03:28:02.741Z,1009.89
2018-02-04T03:29:02.703Z,1009.89
2018-02-04T03:30:02.685Z,1009.95
2018-02-04T03:31:02.645Z,1009.93
2018-02-04T03:32:02.628Z,1009.97
2018-02-04T03:33:02.609Z,1009.96
2018-02-04T03:34:02.606Z,1009.98
2018-02-04T03:35:02.565Z,1010.03
2018-02-04T03:36:02.547Z,1010.00
2018-02-04T03:37:02.528Z,1010.05
2018-02-04T03:38:02.504Z,1010.01
2018-02-04T03:39:02.487Z,1010.07
2018-02-04T03:40:02.480Z,1010.03
2018-02-04T03:41:02.446Z,1010.06
2018-02-04T03:42:02.433Z,1010.13
2018-02-04T03:43:02.407Z,1010.14
2018-02-04T03:44:02.387Z,1010.19
2018-02-04T03:45:02.365Z,1010.20
2018-02-04T03:46:02.361Z,1010.23
2018-02-04T03:47:02.325Z,1010.25
2018-02-04T03:48:02.301Z,1010.24
2018-02-04T03:49:02.284Z,1010.27
2018-02-04T03:50:02.282Z,1010.28
2018-02-04T03:51:02.242Z,1010.33
2018-02-04T03:52:02.221Z,1010.38
2018-02-04T03:53:02.201Z,1010.42
2018-02-04T03:54:02.184Z,1010.43
2018-02-04T03:55:02.157Z,1010.48
2018-02-04T03:56:02.161Z,1010.46
2018-02-04T03:57:02.121Z,1010.46
2018-02-04T03:58:02.104Z,1010.54
2018-02-04T03:59:02.083Z,1010.57
2018-02-04T04:00:02.059Z,1010.60
2018-02-04T04:01:02.057Z,1010.59
2018-02-04T04:02:02.036Z,1010.65
2018-02-04T04:03:02.001Z,1010.65
2018-02-04T04:04:01.983Z,1010.65
2018-02-04T04:05:01.961Z,1010.71
2018-02-04T04:06:01.939Z,1010.76
2018-02-04T04:07:01.935Z,1010.73
2018-02-04T04:08:01.899Z,1010.75
2018-02-04T04:09:01.879Z,1010.76
2018-02-04T04:10:01.860Z,1010.72
2018-02-04T04:11:01.839Z,1010.80
2018-02-04T04:12:01.822Z,1010.79
2018-02-04T04:13:01.812Z,1010.80
2018-02-04T04:14:01.781Z,1010.77
2018-02-04T04:15:01.755Z,1010.79
2018-02-04T04:16:01.740Z,1010.80
2018-02-04T04:17:01.717Z,1010.81
2018-02-04T04:18:01.710Z,1010.84
2018-02-04T04:19:01.675Z,1010.84
2018-02-04T04:20:01.656Z,1010.86
2018-02-04T04:21:01.640Z,1010.87
2018-02-04T04:22:01.630Z,1010.87
2018-02-04T04:23:01.597Z,1010.89
2018-02-04T04:24:01.574Z,1010.89
2018-02-04T04:25:01.555Z,1010.93
2018-02-04T04:26:01.548Z,1010.96
2018-02-04T04:27:01.513Z,1010.98
2018-02-04T04:28:01.493Z,1011.02
2018-02-04T04:29:01.474Z,1010.99
2018-02-04T04:30:01.451Z,1011.04
2018-02-04T04:31:01.446Z,1011.10
2018-02-04T04:32:01.427Z,1011.07
2018-02-04T04:33:01.392Z,1011.14
2018-02-04T04:34:01.373Z,1011.13
2018-02-04T04:35:01.350Z,1011.16
2018-02-04T04:36:01.347Z,1011.22
2018-02-04T04:37:01.308Z,1011.21
2018-02-04T04:38:01.290Z,1011.24
2018-02-04T04:39:01.264Z,1011.26
2018-02-04T04:40:01.250Z,1011.24
2018-02-04T04:41:01.229Z,1011.24
2018-02-04T04:42:01.219Z,1011.29
2018-02-04T04:43:01.189Z,1011.32
2018-02-04T04:44:01.168Z,1011.31
2018-02-04T04:45:01.146Z,1011.27
2018-02-04T04:46:01.143Z,1011.31
2018-02-04T04:47:01.107Z,1011.31
2018-02-04T04:48:01.132Z,1011.34
2018-02-04T04:49:01.063Z,1011.35
2018-02-04T04:50:01.041Z,1011.35
2018-02-04T04:51:01.024Z,1011.34
2018-02-04T04:52:01.021Z,1011.35
2018-02-04T04:53:00.998Z,1011.41
2018-02-04T04:54:00.972Z,1011.43
2018-02-04T04:55:00.942Z,1011.43
2018-02-04T04:56:00.941Z,1011.45
2018-02-04T04:57:00.901Z,1011.48
2018-02-04T04:58:00.882Z,1011.45
2018-02-04T04:59:00.856Z,1011.53
2018-02-04T05:00:00.839Z,1011.52
2018-02-04T05:01:00.821Z,1011.50
2018-02-04T05:02:00.812Z,1011.53
2018-02-04T05:03:00.791Z,1011.52
2018-02-04T05:04:00.759Z,1011.48
2018-02-04T05:05:00.740Z,1011.54
2018-02-04T05:06:00.718Z,1011.53
2018-02-04T05:07:00.695Z,1011.56
2018-02-04T05:08:00.696Z,1011.56
2018-02-04T05:09:00.661Z,1011.55
2018-02-04T05:10:00.638Z,1011.62
2018-02-04T05:11:00.616Z,1011.64
2018-02-04T05:12:00.612Z,1011.69
2018-02-04T05:13:00.577Z,1011.70
2018-02-04T05:14:00.568Z,1011.74
2018-02-04T05:15:00.537Z,1011.79
2018-02-04T05:16:00.516Z,1011.78
2018-02-04T05:17:00.495Z,1011.76
2018-02-04T05:18:00.470Z,1011.76
2018-02-04T05:19:00.466Z,1011.78
2018-02-04T05:20:00.446Z,1011.85
2018-02-04T05:21:00.413Z,1011.88
2018-02-04T05:22:00.392Z,1011.93
2018-02-04T05:23:00.372Z,1011.93
2018-02-04T05:24:00.367Z,1011.95
2018-02-04T05:25:00.329Z,1012.05
2018-02-04T05:26:00.309Z,1012.00
2018-02-04T05:27:00.288Z,1012.07
2018-02-04T05:28:00.268Z,1012.08
2018-02-04T05:29:00.252Z,1012.07
2018-02-04T05:30:00.243Z,1012.10
2018-02-04T05:31:00.204Z,1012.14
2018-02-04T05:32:00.188Z,1012.08
2018-02-04T05:33:00.166Z,1012.07
2018-02-04T05:34:00.146Z,1012.11
2018-02-04T05:35:00.125Z,1012.14
2018-02-04T05:36:00.117Z,1012.16
2018-02-04T05:37:00.098Z,1012.18
2018-02-04T05:38:00.063Z,1012.17
2018-02-04T05:39:00.053Z,1012.15
2018-02-04T05:40:00.034Z,1012.21
2018-02-04T05:40:59.999Z,1012.23
2018-02-04T05:42:00.000Z,1012.24
2018-02-04T05:42:59.957Z,1012.22
2018-02-04T05:43:59.937Z,1012.24
2018-02-04T05:44:59.916Z,1012.28
2018-02-04T05:45:59.896Z,1012.30
2018-02-04T05:46:59.876Z,1012.25
2018-02-04T05:47:59.870Z,1012.26
2018-02-04T05:48:59.834Z,1012.29
2018-02-04T05:49:59.816Z,1012.28
2018-02-04T05:50:59.792Z,1012.27
2018-02-04T05:51:59.774Z,1012.27
2018-02-04T05:52:59.751Z,1012.28
2018-02-04T05:53:59.744Z,1012.33
2018-02-04T05:54:59.707Z,1012.30
2018-02-04T05:55:59.690Z,1012.36
2018-02-04T05:56:59.667Z,1012.36
2018-02-04T05:57:59.713Z,1012.37
2018-02-04T05:58:59.629Z,1012.40
2018-02-04T05:59:59.607Z,1012.44
2018-02-04T06:00:59.588Z,1012.42
2018-02-04T06:01:59.570Z,1012.42
2018-02-04T06:02:59.597Z,1012.44
2018-02-04T06:03:59.544Z,1012.47
2018-02-04T06:04:59.505Z,1012.46
2018-02-04T06:05:59.487Z,1012.48
2018-02-04T06:06:59.465Z,1012.53
2018-02-04T06:07:59.443Z,1012.50
2018-02-04T06:08:59.438Z,1012.51
2018-02-04T06:09:59.401Z,1012.56
2018-02-04T06:10:59.382Z,1012.58
2018-02-04T06:11:59.357Z,1012.62
2018-02-04T06:12:59.341Z,1012.61
2018-02-04T06:13:59.347Z,1012.66
2018-02-04T06:14:59.299Z,1012.66
2018-02-04T06:15:59.282Z,1012.70
2018-02-04T06:16:59.256Z,1012.70
2018-02-04T06:17:59.240Z,1012.75
2018-02-04T06:18:59.221Z,1012.77
2018-02-04T06:19:59.214Z,1012.80
2018-02-04T06:20:59.178Z,1012.85
2018-02-04T06:21:59.157Z,1012.84
2018-02-04T06:22:59.133Z,1012.89
2018-02-04T06:23:59.116Z,1012.88
2018-02-04T06:24:59.093Z,1012.96
2018-02-04T06:25:59.085Z,1012.99
2018-02-04T06:26:59.052Z,1012.99
2018-02-04T06:27:59.031Z,1012.99
2018-02-04T06:28:59.012Z,1012.99
2018-02-04T06:29:59.024Z,1013.01
2018-02-04T06:30:58.988Z,1013.01
2018-02-04T06:31:58.949Z,1013.01
2018-02-04T06:32:58.925Z,1013.03
2018-02-04T06:33:58.909Z,1013.00
2018-02-04T06:34:58.888Z,1013.03
2018-02-04T06:35:58.869Z,1013.03
2018-02-04T06:36:58.863Z,1013.06
2018-02-04T06:37:58.827Z,1013.10
2018-02-04T06:38:58.805Z,1013.06
2018-02-04T06:39:58.786Z,1013.10
2018-02-04T06:40:58.766Z,1013.17
2018-02-04T06:41:58.764Z,1013.12
2018-02-04T06:42:58.724Z,1013.22
2018-02-04T06:43:58.703Z,1013.18
2018-02-04T06:44:58.683Z,1013.24
2018-02-04T06:45:58.662Z,1013.25
2018-02-04T06:47:19.651Z,1013.28
2018-02-04T06:47:58.623Z,1013.22
2018-02-04T06:48:58.604Z,1013.31
2018-02-04T06:49:58.594Z,1013.32
2018-02-04T06:50:58.562Z,1013.31
2018-02-04T06:51:58.538Z,1013.31
2018-02-04T06:52:58.532Z,1013.32
2018-02-04T06:53:58.502Z,1013.29
2018-02-04T06:54:58.476Z,1013.39
2018-02-04T06:55:58.456Z,1013.35
2018-02-04T06:56:58.436Z,1013.39
2018-02-04T06:57:58.647Z,1013.38
2018-02-04T06:58:58.503Z,1013.40
2018-02-04T06:59:58.374Z,1013.42
2018-02-04T07:00:58.356Z,1013.41
2018-02-04T07:01:58.336Z,1013.41
2018-02-04T07:02:58.328Z,1013.44
2018-02-04T07:03:58.479Z,1013.39
2018-02-04T07:04:58.273Z,1013.40
2018-02-04T07:05:58.250Z,1013.47
2018-02-04T07:06:58.232Z,1013.48
2018-02-04T07:07:58.232Z,1013.51
2018-02-04T07:08:58.194Z,1013.54
2018-02-04T07:09:59.124Z,1013.55
2018-02-04T07:10:58.373Z,1013.52
2018-02-04T07:11:58.130Z,1013.58
2018-02-04T07:12:58.109Z,1013.57
2018-02-04T07:13:58.106Z,1013.57
2018-02-04T07:14:58.064Z,1013.62
2018-02-04T07:15:58.047Z,1013.65
2018-02-04T07:16:58.028Z,1013.65
2018-02-04T07:17:58.017Z,1013.67
2018-02-04T07:18:58.003Z,1013.67
2018-02-04T07:19:57.973Z,1013.71
2018-02-04T07:20:57.951Z,1013.73
2018-02-04T07:21:57.928Z,1013.78
2018-02-04T07:22:57.906Z,1013.76
2018-02-04T07:23:57.901Z,1013.80
2018-02-04T07:24:57.863Z,1013.78
2018-02-04T07:25:57.849Z,1013.81
2018-02-04T07:26:57.826Z,1013.87
2018-02-04T07:27:57.818Z,1013.85
2018-02-04T07:28:57.802Z,1013.87
2018-02-04T07:29:57.784Z,1013.90
2018-02-04T07:30:57.745Z,1013.92
2018-02-04T07:31:57.728Z,1013.91
2018-02-04T07:32:57.707Z,1013.87
2018-02-04T07:33:57.715Z,1013.91
2018-02-04T07:34:57.675Z,1013.91
2018-02-04T07:35:57.665Z,1013.95
2018-02-04T07:36:57.637Z,1013.96
2018-02-04T07:37:57.604Z,1014.00
2018-02-04T07:38:57.583Z,1014.00
2018-02-04T07:39:57.575Z,1014.04
2018-02-04T07:40:57.548Z,1014.05
2018-02-04T07:41:57.555Z,1014.06
2018-02-04T07:42:57.504Z,1014.09
2018-02-04T07:43:57.487Z,1014.09
2018-02-04T07:44:57.464Z,1014.11
2018-02-04T07:45:57.444Z,1014.13
2018-02-04T07:46:57.453Z,1014.16
2018-02-04T07:47:57.402Z,1014.18
2018-02-04T07:48:57.407Z,1014.17
2018-02-04T07:49:57.376Z,1014.18
2018-02-04T07:50:57.350Z,1014.21
2018-02-04T07:51:57.324Z,1014.22
2018-02-04T07:52:57.325Z,1014.23
2018-02-04T07:53:57.287Z,1014.22
2018-02-04T07:54:57.254Z,1014.24
2018-02-04T07:55:57.248Z,1014.27
2018-02-04T07:56:57.236Z,1014.30
2018-02-04T07:57:57.215Z,1014.29
2018-02-04T07:58:57.180Z,1014.28
2018-02-04T07:59:57.161Z,1014.27
2018-02-04T08:00:57.141Z,1014.30
2018-02-04T08:01:57.119Z,1014.31
2018-02-04T08:02:57.122Z,1014.35
2018-02-04T08:03:57.091Z,1014.37
2018-02-04T08:04:57.060Z,1014.36
2018-02-04T08:05:57.042Z,1014.39
2018-02-04T08:06:57.018Z,1014.41
2018-02-04T08:07:57.002Z,1014.36
2018-02-04T08:08:56.992Z,1014.41
2018-02-04T08:09:56.969Z,1014.46
2018-02-04T08:10:57.630Z,1014.46
2018-02-04T08:11:56.923Z,1014.49
2018-02-04T08:12:56.916Z,1014.40
2018-02-04T08:13:56.911Z,1014.41
2018-02-04T08:14:56.865Z,1014.34
2018-02-04T08:15:56.834Z,1014.31
2018-02-04T08:16:56.828Z,1014.34
2018-02-04T08:17:56.812Z,1014.36
2018-02-04T08:18:56.799Z,1014.37
2018-02-04T08:19:56.844Z,1014.41
2018-02-04T08:20:56.780Z,1014.41
2018-02-04T08:21:56.777Z,1014.38
2018-02-04T08:22:56.712Z,1014.41
2018-02-04T08:23:56.824Z,1014.38
2018-02-04T08:24:56.721Z,1014.41
2018-02-04T08:25:56.645Z,1014.41
2018-02-04T08:26:56.651Z,1014.41
2018-02-04T08:27:56.607Z,1014.43
2018-02-04T08:28:56.628Z,1014.42
2018-02-04T08:29:56.576Z,1014.43
2018-02-04T08:30:56.564Z,1014.46
2018-02-04T08:31:56.545Z,1014.49
2018-02-04T08:32:56.526Z,1014.58
2018-02-04T08:33:56.509Z,1014.55
2018-02-04T08:34:57.130Z,1014.57
2018-02-04T08:35:56.506Z,1014.60
2018-02-04T08:36:56.428Z,1014.58
2018-02-04T08:37:56.426Z,1014.64
2018-02-04T08:38:56.433Z,1014.65
2018-02-04T08:39:56.374Z,1014.70
2018-02-04T08:40:56.423Z,1014.67
2018-02-04T08:41:56.378Z,1014.68
2018-02-04T08:42:56.346Z,1014.66
2018-02-04T08:43:56.299Z,1014.68
2018-02-04T08:44:56.324Z,1014.74
2018-02-04T08:45:56.282Z,1014.76
2018-02-04T08:46:56.265Z,1014.81
2018-02-04T08:47:56.225Z,1014.81
2018-02-04T08:48:56.233Z,1014.84
2018-02-04T08:49:56.167Z,1014.83
2018-02-04T08:50:56.193Z,1014.84
2018-02-04T08:51:56.162Z,1014.85
2018-02-04T08:52:56.155Z,1014.86
2018-02-04T08:53:56.082Z,1014.87
2018-02-04T08:54:56.063Z,1014.83
2018-02-04T08:55:56.047Z,1014.84
2018-02-04T08:56:56.024Z,1014.83
2018-02-04T08:57:56.002Z,1014.81
2018-02-04T08:58:56.012Z,1014.85
2018-02-04T08:59:55.960Z,1014.89
2018-02-04T09:00:55.957Z,1014.94
2018-02-04T09:01:55.955Z,1014.89
2018-02-04T09:02:55.911Z,1014.95
2018-02-04T09:03:55.881Z,1014.93
2018-02-04T09:04:55.897Z,1014.92
2018-02-04T09:05:55.871Z,1014.97
2018-02-04T09:06:55.839Z,1014.98
2018-02-04T09:07:55.836Z,1014.98
2018-02-04T09:08:55.801Z,1015.00
2018-02-04T09:09:55.768Z,1015.00
2018-02-04T09:10:55.765Z,1015.02
2018-02-04T09:11:55.729Z,1015.05
2018-02-04T09:12:55.706Z,1015.03
2018-02-04T09:13:55.718Z,1015.03
2018-02-04T09:14:55.682Z,1015.04
2018-02-04T09:15:55.651Z,1015.05
2018-02-04T09:16:55.644Z,1015.09
2018-02-04T09:17:55.618Z,1015.08
2018-02-04T09:18:55.594Z,1015.08
2018-02-04T09:19:55.572Z,1015.09
2018-02-04T09:20:55.558Z,1015.12
2018-02-04T09:21:55.531Z,1015.12
2018-02-04T09:22:55.529Z,1015.12
2018-02-04T09:23:55.525Z,1015.14
2018-02-04T09:24:55.468Z,1015.13
2018-02-04T09:25:55.466Z,1015.17
2018-02-04T09:26:55.485Z,1015.18
2018-02-04T09:27:55.411Z,1015.17
2018-02-04T09:28:55.393Z,1015.14
2018-02-04T09:29:55.371Z,1015.17
2018-02-04T09:30:55.366Z,1015.23
2018-02-04T09:31:55.333Z,1015.24
2018-02-04T09:32:55.313Z,1015.21
2018-02-04T09:33:55.290Z,1015.25
2018-02-04T09:34:55.349Z,1015.27
2018-02-04T09:35:55.271Z,1015.29
2018-02-04T09:36:55.235Z,1015.37
2018-02-04T09:37:56.134Z,1015.38
2018-02-04T09:38:55.216Z,1015.32
2018-02-04T09:39:55.181Z,1015.35
2018-02-04T09:40:55.172Z,1015.37
2018-02-04T09:41:55.152Z,1015.35
2018-02-04T09:42:55.115Z,1015.43
2018-02-04T09:43:55.119Z,1015.42
2018-02-04T09:44:55.095Z,1015.39
2018-02-04T09:45:55.072Z,1015.44
2018-02-04T09:46:55.048Z,1015.42
2018-02-04T09:47:55.025Z,1015.43
2018-02-04T09:48:55.030Z,1015.43
2018-02-04T09:49:54.986Z,1015.47
2018-02-04T09:50:54.985Z,1015.45
2018-02-04T09:51:54.968Z,1015.46
2018-02-04T09:52:54.924Z,1015.44
2018-02-04T09:53:54.910Z,1015.47
2018-02-04T09:54:54.894Z,1015.47
2018-02-04T09:55:54.881Z,1015.46
2018-02-04T09:56:57.564Z,1015.48
2018-02-04T09:57:54.828Z,1015.53
2018-02-04T09:58:54.841Z,1015.53
2018-02-04T10:00:04.075Z,1015.55
2018-02-04T10:00:54.779Z,1015.51
2018-02-04T10:01:54.760Z,1015.57
2018-02-04T10:02:54.740Z,1015.57
2018-02-04T10:04:04.549Z,1015.54
2018-02-04T10:04:54.703Z,1015.60
2018-02-04T10:05:54.685Z,1015.59
2018-02-04T10:06:54.659Z,1015.62
2018-02-04T10:07:54.642Z,1015.63
2018-02-04T10:08:54.623Z,1015.63
2018-02-04T10:09:54.620Z,1015.68
2018-02-04T10:10:54.583Z,1015.71
2018-02-04T10:11:54.577Z,1015.70
2018-02-04T10:12:54.541Z,1015.76
2018-02-04T10:13:54.533Z,1015.75
2018-02-04T10:14:54.505Z,1015.75
2018-02-04T10:15:54.519Z,1015.76
2018-02-04T10:16:54.487Z,1015.74
2018-02-04T10:17:54.455Z,1015.76
2018-02-04T10:18:54.439Z,1015.78
2018-02-04T10:19:54.412Z,1015.79
2018-02-04T10:20:54.414Z,1015.78
2018-02-04T10:22:15.386Z,1015.82
2018-02-04T10:22:54.349Z,1015.79
2018-02-04T10:23:54.327Z,1015.85
2018-02-04T10:24:54.310Z,1015.89
2018-02-04T10:25:54.305Z,1015.84
2018-02-04T10:26:54.270Z,1015.85
2018-02-04T10:27:54.266Z,1015.89
2018-02-04T10:28:54.228Z,1015.85
2018-02-04T10:29:54.226Z,1015.87
2018-02-04T10:30:54.212Z,1015.85
2018-02-04T10:31:54.170Z,1015.83
2018-02-04T10:32:54.166Z,1015.85
2018-02-04T10:33:54.153Z,1015.81
2018-02-04T10:34:54.115Z,1015.83
2018-02-04T10:35:54.110Z,1015.84
2018-02-04T10:36:54.080Z,1015.87
2018-02-04T10:37:54.068Z,1015.83
2018-02-04T10:38:54.035Z,1015.86
2018-02-04T10:39:54.014Z,1015.80
2018-02-04T10:40:54.001Z,1015.84
2018-02-04T10:41:53.976Z,1015.85
2018-02-04T10:42:53.973Z,1015.83
2018-02-04T10:43:53.932Z,1015.85
2018-02-04T10:44:53.912Z,1015.84
2018-02-04T10:45:53.897Z,1015.84
2018-02-04T10:46:53.878Z,1015.86
2018-02-04T10:47:53.870Z,1015.85
2018-02-04T10:48:53.839Z,1015.85
2018-02-04T10:49:53.812Z,1015.85
2018-02-04T10:50:53.795Z,1015.86
2018-02-04T10:51:53.780Z,1015.83
2018-02-04T10:52:53.770Z,1015.86
2018-02-04T10:53:53.733Z,1015.88
2018-02-04T10:54:53.712Z,1015.85
2018-02-04T10:55:53.714Z,1015.86
2018-02-04T10:56:53.674Z,1015.88
2018-02-04T10:57:53.683Z,1015.93
2018-02-04T10:58:53.634Z,1015.89
2018-02-04T10:59:53.617Z,1015.94
2018-02-04T11:00:53.633Z,1015.92
2018-02-04T11:01:53.578Z,1015.94
2018-02-04T11:02:53.578Z,1015.97
2018-02-04T11:03:53.539Z,1015.94
2018-02-04T11:04:53.528Z,1015.96
2018-02-04T11:05:53.498Z,1016.04
2018-02-04T11:06:53.477Z,1015.99
2018-02-04T11:07:53.468Z,1016.03
2018-02-04T11:08:53.460Z,1016.05
2018-02-04T11:09:53.416Z,1016.06
2018-02-04T11:10:53.390Z,1016.07
2018-02-04T11:11:53.377Z,1016.07
2018-02-04T11:12:53.359Z,1016.07
2018-02-04T11:13:53.352Z,1016.07
2018-02-04T11:14:53.313Z,1016.09
2018-02-04T11:15:53.297Z,1016.12
2018-02-04T11:16:53.294Z,1016.11
2018-02-04T11:17:53.258Z,1016.12
2018-02-04T11:18:53.237Z,1016.10
2018-02-04T11:19:53.228Z,1016.11
2018-02-04T11:20:53.193Z,1016.12
2018-02-04T11:22:14.182Z,1016.14
2018-02-04T11:22:53.150Z,1016.19
2018-02-04T11:23:53.143Z,1016.13
2018-02-04T11:24:53.130Z,1016.16
2018-02-04T11:25:53.098Z,1016.15
2018-02-04T11:26:53.097Z,1016.16
2018-02-04T11:27:53.060Z,1016.16
2018-02-04T11:28:53.034Z,1016.20
2018-02-04T11:29:53.030Z,1016.19
2018-02-04T11:30:52.997Z,1016.21
2018-02-04T11:31:54.920Z,1016.18
2018-02-04T11:32:52.969Z,1016.23
2018-02-04T11:33:52.937Z,1016.27
2018-02-04T11:34:52.914Z,1016.27
2018-02-04T11:35:52.892Z,1016.30
2018-02-04T11:36:52.873Z,1016.31
2018-02-04T11:37:52.875Z,1016.33
2018-02-04T11:38:52.839Z,1016.35
2018-02-04T11:39:52.820Z,1016.38
2018-02-04T11:40:52.798Z,1016.38
2018-02-04T11:41:52.776Z,1016.39
2018-02-04T11:42:52.753Z,1016.40
2018-02-04T11:44:13.754Z,1016.41
2018-02-04T11:44:52.716Z,1016.38
2018-02-04T11:45:52.696Z,1016.39
2018-02-04T11:46:52.676Z,1016.41
2018-02-04T11:47:52.726Z,1016.43
2018-02-04T11:48:52.642Z,1016.49
2018-02-04T11:49:52.631Z,1016.45
2018-02-04T11:50:52.605Z,1016.50
2018-02-04T11:51:52.576Z,1016.53
2018-02-04T11:52:52.559Z,1016.54
2018-02-04T11:53:52.538Z,1016.57
2018-02-04T11:54:52.535Z,1016.53
2018-02-04T11:55:52.494Z,1016.53
2018-02-04T11:56:52.471Z,1016.53
2018-02-04T11:57:52.459Z,1016.55
2018-02-04T11:58:52.454Z,1016.56
2018-02-04T11:59:52.422Z,1016.57
2018-02-04T12:00:52.410Z,1016.57
2018-02-04T12:01:52.377Z,1016.59
2018-02-04T12:02:52.361Z,1016.58
2018-02-04T12:03:52.356Z,1016.61
2018-02-04T12:04:52.320Z,1016.58